Time;durP1;ratioP1;P1;durP2;ratioP2;P2;SDS_P1;SDS_P2;PMS_P1;PMS_P2;Temp;Humidity;BMP_temperature;BMP_pressure;BME280_temperature;BME280_humidity;BME280_pressure;Samples;Min_cycle;Max_cycle;Signal;HPM_P1;HPM_P2
2023/05/05 00:00:00;;;;;;;5.83;5.33;;;14.30;21.60;;;;;;4947049;29;20302;-60
2023/05/05 00:02:28;;;;;;;5.43;4.93;;;14.30;22.20;;;;;;4949186;28;20228;-60
2023/05/05 00:04:58;;;;;;;5.43;4.80;;;14.20;32.20;;;;;;4945775;29;20247;-60
2023/05/05 00:07:27;;;;;;;7.67;5.23;;;14.10;41.10;;;;;;4950396;29;20230;-60
2023/05/05 00:09:55;;;;;;;5.60;5.10;;;14.10;40.80;;;;;;4946943;29;21720;-60
2023/05/05 00:12:23;;;;;;;5.40;5.00;;;14.00;40.90;;;;;;4950120;29;20196;-59
2023/05/05 00:14:51;;;;;;;6.70;5.97;;;13.90;42.60;;;;;;4950752;29;20195;-60
2023/05/05 00:17:20;;;;;;;6.13;5.30;;;13.80;39.90;;;;;;4945510;28;20223;-58
2023/05/05 00:19:48;;;;;;;6.20;5.60;;;13.80;49.40;;;;;;4951223;29;20219;-59
2023/05/05 00:22:18;;;;;;;6.60;6.00;;;13.70;51.70;;;;;;4949333;28;20258;-60
2023/05/05 00:24:46;;;;;;;6.97;5.40;;;13.60;53.20;;;;;;4954428;29;20227;-59
2023/05/05 00:27:14;;;;;;;9.73;5.57;;;13.60;61.90;;;;;;4950777;28;20659;-59
2023/05/05 00:29:42;;;;;;;6.23;5.63;;;13.50;64.80;;;;;;4954796;28;20199;-60
2023/05/05 00:32:11;;;;;;;6.30;5.80;;;13.50;68.60;;;;;;4950803;29;20267;-60
2023/05/05 00:34:39;;;;;;;6.83;5.70;;;13.40;74.00;;;;;;4952120;29;20579;-59
2023/05/05 00:37:07;;;;;;;6.43;5.83;;;13.40;82.30;;;;;;4953114;29;20710;-59
2023/05/05 00:39:37;;;;;;;6.40;5.90;;;13.30;86.30;;;;;;4950508;28;20708;-59
2023/05/05 00:42:05;;;;;;;6.80;6.10;;;13.30;85.00;;;;;;4950920;28;20227;-59
2023/05/05 00:44:39;;;;;;;6.63;6.03;;;13.30;87.60;;;;;;4953740;29;20369;-59
2023/05/05 00:47:08;;;;;;;9.33;6.77;;;13.40;87.70;;;;;;4952409;28;20690;-59
2023/05/05 00:49:37;;;;;;;6.63;6.03;;;13.40;84.50;;;;;;4951370;29;20647;-59
2023/05/05 00:52:06;;;;;;;6.60;6.00;;;13.40;79.00;;;;;;4953881;28;20322;-59
2023/05/05 00:54:37;;;;;;;10.23;6.20;;;13.50;80.50;;;;;;4950450;28;20279;-59
2023/05/05 00:57:06;;;;;;;6.93;6.23;;;13.50;77.50;;;;;;4956460;28;20192;-59
2023/05/05 00:59:35;;;;;;;7.77;7.03;;;13.50;77.20;;;;;;4949513;29;20652;-59
2023/05/05 01:04:52;;;;;;;7.87;6.60;;;13.40;76.80;;;;;;5470403;23;20328;-61
2023/05/05 01:07:44;;;;;;;9.87;6.93;;;13.40;74.40;;;;;;4951001;29;20270;-62
2023/05/05 01:10:53;;;;;;;11.00;7.10;;;13.30;81.20;;;;;;4953849;28;20268;-61
2023/05/05 01:17:12;;;;;;;8.43;7.33;;;13.20;91.60;;;;;;4955449;28;20298;-61
2023/05/05 01:19:58;;;;;;;10.33;8.07;;;13.10;92.60;;;;;;4955805;28;20618;-61
2023/05/05 01:22:33;;;;;;;13.33;9.00;;;13.10;94.30;;;;;;4954041;28;20283;-61
2023/05/05 01:25:28;;;;;;;11.00;9.13;;;13.20;96.40;;;;;;4952918;28;20219;-61
2023/05/05 01:28:11;;;;;;;11.53;9.37;;;13.30;98.70;;;;;;4956557;28;20230;-61
2023/05/05 01:31:20;;;;;;;13.87;10.07;;;13.30;99.90;;;;;;4954360;28;20228;-61
2023/05/05 01:33:54;;;;;;;12.13;9.90;;;13.30;99.90;;;;;;4913181;29;20225;-61
2023/05/05 01:36:26;;;;;;;13.87;10.37;;;13.40;99.80;;;;;;4948221;28;20278;-61
2023/05/05 01:38:59;;;;;;;11.63;9.93;;;13.40;99.90;;;;;;4956363;28;20259;-61
2023/05/05 01:41:32;;;;;;;10.73;9.60;;;13.40;99.90;;;;;;4956175;28;20224;-61
2023/05/05 01:47:42;;;;;;;9.33;8.43;;;13.40;99.90;;;;;;4949528;29;20244;-61
2023/05/05 01:50:32;;;;;;;9.47;7.97;;;13.40;99.90;;;;;;4954864;28;20226;-62
2023/05/05 01:56:27;;;;;;;8.53;7.60;;;13.50;99.90;;;;;;4951610;29;20228;-61
2023/05/05 01:58:56;;;;;;;8.37;7.20;;;13.40;99.90;;;;;;4955710;28;20215;-61
2023/05/05 02:01:26;;;;;;;10.57;7.83;;;13.40;99.90;;;;;;4955504;28;20271;-61
2023/05/05 02:03:56;;;;;;;7.70;7.00;;;13.40;99.90;;;;;;4938261;29;20224;-61
2023/05/05 02:06:28;;;;;;;7.93;7.13;;;13.40;99.90;;;;;;4919027;29;20245;-62
2023/05/05 02:08:58;;;;;;;7.30;6.60;;;13.40;99.90;;;;;;4915468;29;20253;-61
2023/05/05 02:11:27;;;;;;;7.90;7.10;;;13.30;99.90;;;;;;4884875;29;20285;-62
2023/05/05 02:14:16;;;;;;;7.37;6.70;;;13.30;99.90;;;;;;4906602;29;20225;-61
2023/05/05 02:16:45;;;;;;;7.00;6.33;;;13.20;99.90;;;;;;4914062;29;20312;-61
2023/05/05 02:19:14;;;;;;;7.20;6.60;;;13.10;99.90;;;;;;4919426;29;20225;-61
2023/05/05 02:21:44;;;;;;;6.87;6.27;;;13.10;99.90;;;;;;4932341;29;20751;-61
2023/05/05 02:24:12;;;;;;;7.10;6.50;;;13.10;99.90;;;;;;4918709;29;20237;-61
2023/05/05 02:26:42;;;;;;;8.13;6.23;;;13.00;99.90;;;;;;4917935;29;20225;-61
2023/05/05 02:29:14;;;;;;;6.93;6.30;;;13.00;99.90;;;;;;4900716;29;20234;-61
2023/05/05 02:31:47;;;;;;;8.80;6.30;;;12.90;99.90;;;;;;4916861;29;20277;-61
2023/05/05 02:34:37;;;;;;;8.27;5.90;;;12.90;99.90;;;;;;4910722;29;20319;-61
2023/05/05 02:37:15;;;;;;;6.27;5.77;;;12.80;99.90;;;;;;4913623;29;20225;-61
2023/05/05 02:40:04;;;;;;;6.37;5.90;;;12.80;99.90;;;;;;4917786;29;20645;-62
2023/05/05 02:43:09;;;;;;;6.30;5.80;;;12.80;99.90;;;;;;4908115;29;22049;-61
2023/05/05 02:45:38;;;;;;;6.23;5.73;;;12.70;99.90;;;;;;4915528;29;20225;-62
2023/05/05 02:48:09;;;;;;;7.23;5.83;;;12.70;99.90;;;;;;4917457;29;20571;-61
2023/05/05 02:50:37;;;;;;;6.40;5.63;;;12.70;99.90;;;;;;4914137;29;20221;-61
2023/05/05 02:53:07;;;;;;;6.30;5.70;;;12.70;99.90;;;;;;4909926;29;20226;-61
2023/05/05 02:55:41;;;;;;;7.77;6.13;;;12.70;99.90;;;;;;4912373;29;20229;-61
2023/05/05 02:58:21;;;;;;;6.60;6.00;;;12.70;99.90;;;;;;4924308;29;20288;-61
2023/05/05 03:00:57;;;;;;;6.20;5.70;;;12.70;99.90;;;;;;4926603;29;20236;-62
2023/05/05 03:03:35;;;;;;;6.37;5.77;;;12.80;99.90;;;;;;4910671;29;20221;-61
2023/05/05 03:06:11;;;;;;;6.43;5.93;;;12.80;99.90;;;;;;4934853;29;20232;-62
2023/05/05 03:08:44;;;;;;;6.27;5.73;;;12.80;99.90;;;;;;4936047;29;20219;-61
2023/05/05 03:11:22;;;;;;;5.73;5.30;;;12.90;99.90;;;;;;4928996;29;20650;-61
2023/05/05 03:13:55;;;;;;;7.00;5.90;;;12.90;99.90;;;;;;4937220;29;20263;-62
2023/05/05 03:16:25;;;;;;;6.10;5.60;;;12.90;99.90;;;;;;4934814;29;20336;-61
2023/05/05 03:18:54;;;;;;;6.80;6.10;;;13.00;99.90;;;;;;4935911;29;20303;-61
2023/05/05 03:25:24;;;;;;;6.93;6.20;;;13.00;99.90;;;;;;4932583;29;20216;-61
2023/05/05 03:27:54;;;;;;;6.77;6.00;;;12.90;99.90;;;;;;4931978;29;20220;-60
2023/05/05 03:30:23;;;;;;;6.33;5.80;;;12.90;99.90;;;;;;4936060;29;20260;-62
2023/05/05 03:32:51;;;;;;;6.33;5.73;;;12.80;99.90;;;;;;4933299;29;20194;-61
2023/05/05 03:35:20;;;;;;;8.67;6.47;;;12.70;99.90;;;;;;4916869;29;20640;-61
2023/05/05 03:37:48;;;;;;;6.73;6.13;;;12.70;99.90;;;;;;4935374;29;20220;-61
2023/05/05 03:40:16;;;;;;;8.37;7.27;;;12.60;99.90;;;;;;4935252;29;20247;-61
2023/05/05 03:42:44;;;;;;;7.57;6.87;;;12.50;99.90;;;;;;4934571;29;20710;-61
2023/05/05 03:45:14;;;;;;;7.17;6.57;;;12.50;99.90;;;;;;4917088;29;20249;-60
2023/05/05 03:47:42;;;;;;;7.17;6.50;;;12.50;99.90;;;;;;4934132;29;20244;-61
2023/05/05 03:50:11;;;;;;;9.73;7.30;;;12.40;99.90;;;;;;4930223;29;20236;-61
2023/05/05 03:52:39;;;;;;;7.73;6.97;;;12.40;99.90;;;;;;4927738;29;20238;-61
2023/05/05 03:55:08;;;;;;;7.33;6.73;;;12.40;99.90;;;;;;4933749;29;20634;-61
2023/05/05 03:57:36;;;;;;;7.37;6.63;;;12.40;99.90;;;;;;4935150;29;20283;-61
2023/05/05 04:00:10;;;;;;;12.30;6.87;;;12.30;99.90;;;;;;4936297;29;20619;-61
2023/05/05 04:02:40;;;;;;;7.53;6.50;;;12.30;99.90;;;;;;4926243;29;20252;-61
2023/05/05 04:05:08;;;;;;;8.53;6.93;;;12.20;99.90;;;;;;4928783;29;20244;-61
2023/05/05 04:07:36;;;;;;;10.10;7.43;;;12.20;99.90;;;;;;4915107;29;20226;-61
2023/05/05 04:10:06;;;;;;;10.07;7.80;;;12.20;99.90;;;;;;4934888;29;20228;-61
2023/05/05 04:12:34;;;;;;;10.40;7.57;;;12.30;99.90;;;;;;4938083;29;20228;-61
2023/05/05 04:15:02;;;;;;;11.13;8.43;;;12.30;99.90;;;;;;4932374;29;20283;-62
2023/05/05 04:17:31;;;;;;;9.20;8.30;;;12.40;99.90;;;;;;4934689;29;20662;-62
2023/05/05 04:20:01;;;;;;;11.60;9.00;;;12.40;99.90;;;;;;4930718;29;20221;-61
2023/05/05 04:22:29;;;;;;;11.93;9.43;;;12.50;99.90;;;;;;4935191;29;20243;-61
2023/05/05 04:25:18;;;;;;;12.07;9.60;;;12.60;99.90;;;;;;4935166;29;20703;-62
2023/05/05 04:28:23;;;;;;;10.60;9.43;;;12.60;99.90;;;;;;4935038;29;20691;-61
2023/05/05 04:30:52;;;;;;;12.80;10.00;;;12.70;99.90;;;;;;4927987;29;20224;-62
2023/05/05 04:33:20;;;;;;;15.47;10.03;;;12.70;99.90;;;;;;4932381;29;20309;-61
2023/05/05 04:35:50;;;;;;;13.07;10.77;;;12.70;99.90;;;;;;4928538;29;20193;-61
2023/05/05 04:38:19;;;;;;;13.00;10.67;;;12.80;99.90;;;;;;4920596;29;20221;-61
2023/05/05 04:40:48;;;;;;;13.47;10.60;;;12.80;99.90;;;;;;4934905;29;20225;-62
2023/05/05 04:43:16;;;;;;;12.63;10.70;;;12.80;99.90;;;;;;4927441;29;20283;-61
2023/05/05 04:45:52;;;;;;;14.10;10.60;;;12.90;99.90;;;;;;4921571;29;20247;-61
2023/05/05 04:48:20;;;;;;;16.97;11.83;;;12.90;99.90;;;;;;4934688;29;20200;-62
2023/05/05 04:50:50;;;;;;;15.53;11.23;;;12.90;99.90;;;;;;4927824;29;20197;-61
2023/05/05 04:53:19;;;;;;;15.73;11.50;;;12.80;99.90;;;;;;4932249;29;20224;-61
2023/05/05 04:55:47;;;;;;;14.83;10.73;;;12.80;99.90;;;;;;4932689;29;20616;-61
2023/05/05 04:58:15;;;;;;;13.33;11.30;;;12.90;99.90;;;;;;4933866;29;20225;-62
2023/05/05 05:00:44;;;;;;;15.93;11.40;;;12.80;99.90;;;;;;4932916;29;20229;-61
2023/05/05 05:06:55;;;;;;;15.27;10.90;;;12.90;99.90;;;;;;4924016;29;20224;-61
2023/05/05 05:09:30;;;;;;;16.33;11.33;;;12.90;99.90;;;;;;4930786;29;20967;-62
2023/05/05 05:12:18;;;;;;;15.43;10.43;;;12.90;99.90;;;;;;4932270;29;20663;-61
2023/05/05 05:14:46;;;;;;;13.43;11.10;;;12.90;99.90;;;;;;4934963;29;20277;-61
2023/05/05 05:17:15;;;;;;;11.53;10.33;;;12.80;99.90;;;;;;4920062;29;20292;-61
2023/05/05 05:19:43;;;;;;;12.70;10.53;;;12.90;99.90;;;;;;4937844;29;20227;-61
2023/05/05 05:22:13;;;;;;;13.40;11.03;;;12.90;99.90;;;;;;4930817;29;20232;-61
2023/05/05 05:24:41;;;;;;;14.97;11.50;;;12.90;99.90;;;;;;4936331;29;20232;-62
2023/05/05 05:27:09;;;;;;;14.20;10.93;;;12.90;99.90;;;;;;4936897;29;20251;-61
2023/05/05 05:29:37;;;;;;;13.67;10.63;;;13.00;99.90;;;;;;4920497;29;20295;-61
2023/05/05 05:32:05;;;;;;;12.10;10.47;;;13.10;99.90;;;;;;4935846;29;20252;-61
2023/05/05 05:38:03;;;;;;;17.27;10.47;;;13.30;99.90;;;;;;4934632;29;20252;-61
2023/05/05 05:40:50;;;;;;;13.43;10.93;;;13.40;99.90;;;;;;4920883;29;20213;-62
2023/05/05 05:43:18;;;;;;;14.20;10.03;;;13.60;99.90;;;;;;4934047;29;20683;-61
2023/05/05 05:45:46;;;;;;;19.90;10.23;;;13.80;99.90;;;;;;4933314;29;20228;-62
2023/05/05 05:48:14;;;;;;;13.77;9.43;;;14.00;99.90;;;;;;4932412;29;20201;-61
2023/05/05 05:50:43;;;;;;;11.43;9.17;;;14.20;99.90;;;;;;4936436;29;20189;-62
2023/05/05 05:53:13;;;;;;;11.63;8.90;;;14.40;99.90;;;;;;4934286;29;20581;-61
2023/05/05 05:55:41;;;;;;;12.20;9.40;;;14.50;99.90;;;;;;4934065;29;20220;-62
2023/05/05 05:58:09;;;;;;;11.00;9.03;;;14.50;99.90;;;;;;4935843;29;20233;-61
2023/05/05 06:00:37;;;;;;;10.33;8.43;;;14.50;99.90;;;;;;4934351;29;20225;-61
2023/05/05 06:03:06;;;;;;;14.47;8.40;;;14.50;99.90;;;;;;4937533;29;20213;-62
2023/05/05 06:05:34;;;;;;;10.47;8.57;;;14.50;99.90;;;;;;4936783;29;20233;-61
2023/05/05 06:08:02;;;;;;;11.70;8.80;;;14.50;99.90;;;;;;4916743;29;20224;-62
2023/05/05 06:10:32;;;;;;;9.70;7.93;;;14.70;99.90;;;;;;4937925;29;20224;-62
2023/05/05 06:13:01;;;;;;;10.97;7.83;;;14.80;99.90;;;;;;4938597;29;20228;-62
2023/05/05 06:15:29;;;;;;;9.03;7.67;;;14.90;99.90;;;;;;4921489;29;20544;-61
2023/05/05 06:17:57;;;;;;;11.00;8.40;;;15.10;99.90;;;;;;4935334;29;20231;-61
2023/05/05 06:20:26;;;;;;;9.33;7.67;;;15.30;99.90;;;;;;4934351;29;20231;-62
2023/05/05 06:22:54;;;;;;;12.77;7.47;;;15.50;99.90;;;;;;4930517;29;20225;-61
2023/05/05 06:25:22;;;;;;;9.90;6.87;;;15.70;99.90;;;;;;4932123;29;20752;-61
2023/05/05 06:27:52;;;;;;;10.13;6.67;;;15.90;99.90;;;;;;4934521;29;20633;-61
2023/05/05 06:30:20;;;;;;;7.63;6.70;;;16.10;99.90;;;;;;4930730;29;20228;-61
2023/05/05 06:32:48;;;;;;;9.33;6.33;;;16.50;99.90;;;;;;4937019;29;20193;-62
2023/05/05 06:35:17;;;;;;;6.73;6.00;;;16.70;99.90;;;;;;4918376;29;20894;-62
2023/05/05 06:37:45;;;;;;;7.50;5.87;;;17.00;99.90;;;;;;4916916;29;20636;-62
2023/05/05 06:40:13;;;;;;;7.17;5.30;;;17.20;99.90;;;;;;4936393;29;20224;-62
2023/05/05 06:42:42;;;;;;;7.27;4.90;;;17.30;99.90;;;;;;4935331;29;20233;-62
2023/05/05 06:45:12;;;;;;;5.80;4.97;;;17.30;99.90;;;;;;4913296;29;20604;-61
2023/05/05 06:47:43;;;;;;;7.40;4.97;;;17.40;99.90;;;;;;4935992;29;20228;-61
2023/05/05 06:50:12;;;;;;;7.17;5.27;;;17.20;99.90;;;;;;4918888;29;20315;-61
2023/05/05 06:53:00;;;;;;;7.83;4.80;;;17.10;58.80;;;;;;4936249;29;20225;-62
2023/05/05 06:55:29;;;;;;;7.33;4.70;;;16.90;62.50;;;;;;4934027;29;20221;-62
2023/05/05 06:57:57;;;;;;;6.73;5.07;;;17.00;63.30;;;;;;4935588;29;20221;-62
2023/05/05 07:00:27;;;;;;;6.80;4.60;;;16.80;66.60;;;;;;4935694;29;20197;-61
2023/05/05 07:02:57;;;;;;;8.30;4.93;;;16.90;78.20;;;;;;4936749;29;20237;-61
2023/05/05 07:05:26;;;;;;;5.63;4.93;;;16.90;75.30;;;;;;4932427;29;20256;-61
2023/05/05 07:07:58;;;;;;;8.23;5.07;;;16.90;95.50;;;;;;4934002;29;20340;-62
2023/05/05 07:10:28;;;;;;;8.23;4.87;;;16.90;87.40;;;;;;4933465;29;20222;-61
2023/05/05 07:12:56;;;;;;;6.63;4.30;;;17.00;99.80;;;;;;4936470;29;20641;-61
2023/05/05 07:18:49;;;;;;;6.40;4.90;;;17.10;99.90;;;;;;4932541;29;20577;-61
2023/05/05 07:21:17;;;;;;;7.77;5.43;;;17.20;99.90;;;;;;4934175;29;20200;-61
2023/05/05 07:23:46;;;;;;;5.70;5.17;;;17.30;99.90;;;;;;4935581;29;20577;-61
2023/05/05 07:26:15;;;;;;;8.40;5.93;;;17.20;99.90;;;;;;4935958;29;20232;-61
2023/05/05 07:28:43;;;;;;;7.60;4.77;;;17.20;99.90;;;;;;4934671;29;20228;-61
2023/05/05 07:31:12;;;;;;;6.53;5.23;;;17.20;99.90;;;;;;4933685;29;20227;-62
2023/05/05 07:33:41;;;;;;;6.87;5.03;;;17.20;99.90;;;;;;4935296;29;20228;-61
2023/05/05 07:36:10;;;;;;;9.23;5.30;;;17.20;99.90;;;;;;4931294;29;20195;-61
2023/05/05 07:38:38;;;;;;;8.37;5.07;;;17.10;99.90;;;;;;4934117;29;20705;-61
2023/05/05 07:41:10;;;;;;;6.23;5.37;;;17.10;99.90;;;;;;4935373;29;20224;-62
2023/05/05 07:43:39;;;;;;;9.50;5.53;;;16.90;99.90;;;;;;4932044;29;20761;-62
2023/05/05 07:46:10;;;;;;;8.10;5.40;;;16.80;99.90;;;;;;4936403;29;20233;-61
2023/05/05 07:48:40;;;;;;;7.17;5.40;;;16.80;99.90;;;;;;4934380;29;20246;-61
2023/05/05 07:51:10;;;;;;;6.93;6.23;;;16.80;99.90;;;;;;4935780;29;20548;-61
2023/05/05 07:53:39;;;;;;;7.23;5.40;;;16.70;99.90;;;;;;4934966;29;20589;-61
2023/05/05 07:56:07;;;;;;;10.50;5.40;;;16.60;99.90;;;;;;4939801;29;20225;-61
2023/05/05 07:58:36;;;;;;;5.67;4.80;;;16.60;99.90;;;;;;4944764;29;20218;-61
2023/05/05 08:01:09;;;;;;;5.73;5.13;;;16.60;99.90;;;;;;4933480;29;20688;-61
2023/05/05 08:03:38;;;;;;;8.27;5.70;;;16.70;99.90;;;;;;4935013;29;20220;-61
2023/05/05 08:06:08;;;;;;;6.33;5.00;;;16.70;99.90;;;;;;4935306;29;20228;-61
2023/05/05 08:08:40;;;;;;;7.17;5.23;;;16.70;99.90;;;;;;4936207;29;20277;-61
2023/05/05 08:11:09;;;;;;;6.80;4.90;;;16.80;99.90;;;;;;4937583;29;20589;-61
2023/05/05 08:13:38;;;;;;;6.63;4.93;;;17.00;99.90;;;;;;4934087;29;20285;-61
2023/05/05 08:16:07;;;;;;;8.63;5.03;;;17.00;99.90;;;;;;4932581;29;20310;-61
2023/05/05 08:18:36;;;;;;;8.30;4.50;;;17.10;99.90;;;;;;4932251;29;20593;-61
2023/05/05 08:21:05;;;;;;;8.13;4.40;;;17.10;99.90;;;;;;4934918;29;20204;-61
2023/05/05 08:23:33;;;;;;;7.63;4.80;;;17.10;99.90;;;;;;4933699;29;20291;-62
2023/05/05 08:26:05;;;;;;;7.50;4.70;;;17.10;99.90;;;;;;4930552;29;20595;-61
2023/05/05 08:28:34;;;;;;;7.60;5.03;;;17.20;99.90;;;;;;4934803;29;20231;-62
2023/05/05 08:31:03;;;;;;;7.10;5.03;;;17.10;99.90;;;;;;4934367;29;20947;-61
2023/05/05 08:33:31;;;;;;;8.97;5.20;;;17.00;99.90;;;;;;4924682;29;20756;-61
2023/05/05 08:35:59;;;;;;;8.73;6.03;;;16.90;99.90;;;;;;4936135;29;20203;-61
2023/05/05 08:38:28;;;;;;;12.43;7.33;;;16.70;99.90;;;;;;4931412;29;20254;-62
2023/05/05 08:40:56;;;;;;;10.23;7.40;;;16.60;99.90;;;;;;4931401;29;20626;-61
2023/05/05 08:43:26;;;;;;;13.23;7.37;;;16.40;99.90;;;;;;4939923;29;20285;-61
2023/05/05 08:45:55;;;;;;;9.57;7.97;;;16.30;99.90;;;;;;4936978;29;20230;-61
2023/05/05 08:48:27;;;;;;;9.80;7.70;;;16.40;99.90;;;;;;4937562;29;20196;-61
2023/05/05 08:50:59;;;;;;;10.83;7.90;;;16.50;99.90;;;;;;4940918;29;20209;-61
2023/05/05 08:53:41;;;;;;;11.53;7.87;;;16.70;99.90;;;;;;4937121;29;20712;-61
2023/05/05 08:56:12;;;;;;;11.00;7.73;;;16.80;99.90;;;;;;4936407;29;20228;-62
2023/05/05 08:58:43;;;;;;;10.73;8.80;;;16.90;99.90;;;;;;4937547;29;20224;-61
2023/05/05 09:01:14;;;;;;;9.33;8.03;;;17.10;99.90;;;;;;4938888;29;20220;-61
2023/05/05 09:03:43;;;;;;;9.90;8.00;;;17.10;99.90;;;;;;4932193;29;20280;-63
2023/05/05 09:06:11;;;;;;;13.87;8.70;;;17.20;98.60;;;;;;4934459;29;20241;-62
2023/05/05 09:08:41;;;;;;;9.57;7.90;;;17.30;97.30;;;;;;4931571;29;20225;-62
2023/05/05 09:11:09;;;;;;;9.07;8.17;;;17.50;90.20;;;;;;4929963;29;20252;-61
2023/05/05 09:13:37;;;;;;;11.77;7.93;;;17.50;89.10;;;;;;4937941;29;20226;-62
2023/05/05 09:16:08;;;;;;;12.23;8.10;;;17.80;76.80;;;;;;4930865;29;20272;-61
2023/05/05 09:18:39;;;;;;;9.47;8.27;;;18.00;86.70;;;;;;4934972;29;20234;-62
2023/05/05 09:21:21;;;;;;;9.87;7.90;;;18.10;68.40;;;;;;4938872;29;20199;-61
2023/05/05 09:24:10;;;;;;;10.87;7.87;;;18.30;68.00;;;;;;4934604;29;20220;-62
2023/05/05 09:26:41;;;;;;;10.77;7.67;;;18.10;56.80;;;;;;4934915;29;20236;-62
2023/05/05 09:29:10;;;;;;;10.57;7.50;;;18.30;45.40;;;;;;4931880;29;20277;-62
2023/05/05 09:31:39;;;;;;;9.80;7.77;;;18.40;53.80;;;;;;4935305;29;20587;-62
2023/05/05 09:34:15;;;;;;;9.03;8.10;;;18.40;51.30;;;;;;4934002;29;20220;-61
2023/05/05 09:36:46;;;;;;;13.17;8.53;;;18.40;42.10;;;;;;4934309;29;20232;-62
2023/05/05 09:39:16;;;;;;;13.73;8.93;;;18.50;55.40;;;;;;4934596;29;20193;-62
2023/05/05 09:41:45;;;;;;;13.70;8.30;;;18.50;57.20;;;;;;4919945;29;20203;-62
2023/05/05 09:44:15;;;;;;;11.83;8.10;;;18.70;55.50;;;;;;4934407;29;20232;-62
2023/05/05 09:46:54;;;;;;;8.60;7.67;;;18.90;37.30;;;;;;4930940;29;20228;-62
2023/05/05 09:49:24;;;;;;;13.30;7.50;;;19.30;1.00;;;;;;4932395;29;20243;-62
2023/05/05 09:51:53;;;;;;;10.80;8.23;;;19.30;99.90;;;;;;4931703;29;20228;-62
2023/05/05 09:54:26;;;;;;;12.70;8.37;;;19.10;99.90;;;;;;4936677;29;20224;-62
2023/05/05 09:56:55;;;;;;;7.70;7.00;;;18.90;99.90;;;;;;4934539;29;20547;-62
2023/05/05 09:59:24;;;;;;;10.87;7.83;;;18.90;99.90;;;;;;4935536;29;20221;-62
2023/05/05 10:02:09;;;;;;;12.90;8.10;;;18.90;99.90;;;;;;4931404;29;20247;-62
2023/05/05 10:04:37;;;;;;;10.83;8.60;;;18.80;99.90;;;;;;4931756;29;20276;-62
2023/05/05 10:07:05;;;;;;;11.10;8.80;;;18.70;99.90;;;;;;4935740;29;20228;-62
2023/05/05 10:09:34;;;;;;;12.07;9.47;;;18.80;99.90;;;;;;4943274;29;20224;-63
2023/05/05 10:12:04;;;;;;;10.77;9.33;;;19.20;99.90;;;;;;4937255;29;20306;-62
2023/05/05 10:14:35;;;;;;;10.03;9.03;;;19.30;99.90;;;;;;4935189;29;20224;-62
2023/05/05 10:17:10;;;;;;;14.50;10.30;;;19.50;99.90;;;;;;4934057;29;20224;-62
2023/05/05 10:19:39;;;;;;;13.43;10.40;;;19.50;99.90;;;;;;4938978;29;20225;-62
2023/05/05 10:22:10;;;;;;;16.17;11.30;;;19.40;99.90;;;;;;4934162;29;20221;-62
2023/05/05 10:24:40;;;;;;;14.93;10.67;;;19.10;99.90;;;;;;4933747;29;20228;-62
2023/05/05 10:27:15;;;;;;;15.83;10.77;;;18.90;99.90;;;;;;4938935;29;20243;-62
2023/05/05 10:29:52;;;;;;;13.80;10.33;;;18.90;99.90;;;;;;4931647;29;20221;-62
2023/05/05 10:32:27;;;;;;;14.13;9.80;;;19.10;99.90;;;;;;4935081;29;20231;-63
2023/05/05 10:35:20;;;;;;;11.17;9.73;;;18.90;99.90;;;;;;4933195;29;20224;-62
2023/05/05 10:37:49;;;;;;;16.00;9.57;;;19.00;99.90;;;;;;4916783;29;20217;-62
2023/05/05 10:40:18;;;;;;;13.30;9.23;;;19.00;99.90;;;;;;4935582;29;20730;-62
2023/05/05 10:42:48;;;;;;;19.27;10.50;;;18.70;99.90;;;;;;4936139;29;20870;-62
2023/05/05 10:45:17;;;;;;;13.83;10.20;;;18.50;99.90;;;;;;4933849;29;20231;-61
2023/05/05 10:47:47;;;;;;;14.40;11.03;;;18.40;99.90;;;;;;4935398;29;20199;-61
2023/05/05 10:50:21;;;;;;;15.67;12.40;;;18.40;99.90;;;;;;4934732;29;20224;-61
2023/05/05 10:53:03;;;;;;;15.13;12.27;;;18.20;99.90;;;;;;4933564;29;20220;-63
2023/05/05 10:55:42;;;;;;;21.90;14.07;;;18.10;99.90;;;;;;4935139;29;20224;-62
2023/05/05 10:58:31;;;;;;;26.13;15.30;;;18.30;99.90;;;;;;4931407;29;20275;-62
2023/05/05 11:01:08;;;;;;;25.60;16.10;;;18.60;99.90;;;;;;4935323;29;20220;-62
2023/05/05 11:03:38;;;;;;;23.57;17.10;;;18.90;99.90;;;;;;4935843;29;20232;-62
2023/05/05 11:06:13;;;;;;;24.43;17.53;;;19.10;99.90;;;;;;4928895;29;20722;-62
2023/05/05 11:08:43;;;;;;;25.10;16.97;;;18.90;99.90;;;;;;4926031;29;20692;-61
2023/05/05 11:11:12;;;;;;;18.43;15.63;;;18.80;99.90;;;;;;4934186;29;20268;-62
2023/05/05 11:13:41;;;;;;;19.37;15.07;;;18.50;99.90;;;;;;4930622;29;20217;-62
2023/05/05 11:16:44;;;;;;;16.43;12.83;;;18.30;99.90;;;;;;4935452;29;20224;-62
2023/05/05 11:19:50;;;;;;;18.07;13.83;;;18.50;99.90;;;;;;4923039;29;20220;-62
2023/05/05 11:22:19;;;;;;;18.30;11.60;;;19.20;99.90;;;;;;4928828;29;20568;-62
2023/05/05 11:24:47;;;;;;;9.23;7.97;;;20.40;99.90;;;;;;4933572;29;20224;-62
2023/05/05 11:27:15;;;;;;;9.87;7.23;;;20.40;99.90;;;;;;4935122;29;20213;-62
2023/05/05 11:30:05;;;;;;;11.87;8.20;;;20.30;99.90;;;;;;4935938;29;20197;-62
2023/05/05 11:32:34;;;;;;;10.93;7.43;;;20.50;99.90;;;;;;4921573;29;20579;-62
2023/05/05 11:35:05;;;;;;;9.07;7.60;;;20.50;99.90;;;;;;4922558;29;20220;-62
2023/05/05 11:37:34;;;;;;;9.07;7.03;;;20.50;99.90;;;;;;4936493;29;20220;-62
2023/05/05 11:40:19;;;;;;;7.80;6.73;;;20.20;99.90;;;;;;4926090;29;20696;-62
2023/05/05 11:42:47;;;;;;;7.90;7.10;;;20.10;99.90;;;;;;4931003;29;20221;-62
2023/05/05 11:45:23;;;;;;;10.83;7.83;;;20.40;99.90;;;;;;4941418;29;20205;-62
2023/05/05 11:47:51;;;;;;;9.60;6.50;;;20.70;99.90;;;;;;4938040;29;20231;-62
2023/05/05 11:50:22;;;;;;;10.50;6.97;;;20.90;99.90;;;;;;4928940;29;20253;-62
2023/05/05 11:52:50;;;;;;;9.83;7.40;;;20.70;99.90;;;;;;4916640;29;20225;-63
2023/05/05 11:55:22;;;;;;;12.47;6.67;;;20.50;99.90;;;;;;4934627;29;20220;-62
2023/05/05 11:57:51;;;;;;;5.43;4.90;;;20.40;99.90;;;;;;4933452;29;20228;-61
2023/05/05 12:00:20;;;;;;;6.37;5.30;;;20.30;99.90;;;;;;4935191;29;20209;-62
2023/05/05 12:02:56;;;;;;;5.47;4.50;;;20.40;99.90;;;;;;4934272;29;20215;-62
2023/05/05 12:05:26;;;;;;;5.50;4.83;;;20.30;99.90;;;;;;4933946;29;20657;-62
2023/05/05 12:07:58;;;;;;;6.53;4.13;;;20.20;99.90;;;;;;4920616;29;20258;-62
2023/05/05 12:10:27;;;;;;;3.20;2.90;;;20.10;99.90;;;;;;4939582;29;20229;-61
2023/05/05 12:12:55;;;;;;;3.83;2.80;;;20.00;99.90;;;;;;4937440;29;20304;-62
2023/05/05 12:15:31;;;;;;;4.77;2.90;;;19.80;99.90;;;;;;4933731;29;20193;-62
2023/05/05 12:17:59;;;;;;;4.10;2.43;;;20.00;99.90;;;;;;4933029;29;20263;-62
2023/05/05 12:20:33;;;;;;;3.73;1.93;;;20.40;99.90;;;;;;4920324;29;20311;-62
2023/05/05 12:23:03;;;;;;;4.03;2.10;;;20.70;99.90;;;;;;4935468;29;20342;-62
2023/05/05 12:25:36;;;;;;;3.13;2.00;;;20.90;99.90;;;;;;4937752;29;20224;-62
2023/05/05 12:28:07;;;;;;;2.20;2.00;;;21.00;99.90;;;;;;4934538;29;20696;-62
2023/05/05 12:30:36;;;;;;;3.90;2.27;;;20.80;99.90;;;;;;4938974;29;20224;-62
2023/05/05 12:33:05;;;;;;;2.87;1.90;;;20.50;99.90;;;;;;4938155;29;20556;-63
2023/05/05 12:35:35;;;;;;;3.40;2.10;;;20.70;99.90;;;;;;4941755;29;20253;-62
2023/05/05 12:38:04;;;;;;;3.60;2.30;;;20.80;99.90;;;;;;4938578;29;20260;-62
2023/05/05 12:40:51;;;;;;;3.43;2.20;;;20.60;99.90;;;;;;4936510;29;20284;-62
2023/05/05 12:43:29;;;;;;;4.67;1.97;;;20.80;99.90;;;;;;4937441;29;20232;-62
2023/05/05 12:46:02;;;;;;;3.33;1.80;;;20.90;99.90;;;;;;4938074;29;21117;-62
2023/05/05 12:48:30;;;;;;;3.27;1.93;;;20.90;99.90;;;;;;4936554;29;20268;-63
2023/05/05 12:51:15;;;;;;;1.83;1.73;;;20.80;99.90;;;;;;4937631;29;20259;-62
2023/05/05 12:53:44;;;;;;;1.70;1.60;;;20.60;99.90;;;;;;4945056;28;20213;-62
2023/05/05 12:56:34;;;;;;;1.67;1.57;;;20.40;99.90;;;;;;4938757;29;20220;-62
2023/05/05 12:59:03;;;;;;;2.30;1.40;;;20.20;99.90;;;;;;4934158;29;20722;-62
2023/05/05 13:01:32;;;;;;;2.20;1.40;;;20.00;99.90;;;;;;4936499;29;20228;-63
2023/05/05 13:04:08;;;;;;;2.33;1.30;;;20.00;99.90;;;;;;4939461;29;20228;-63
2023/05/05 13:06:38;;;;;;;2.03;1.30;;;19.90;99.90;;;;;;4934755;29;20238;-63
2023/05/05 13:09:07;;;;;;;3.97;1.87;;;19.70;99.90;;;;;;4932035;29;20252;-62
2023/05/05 13:11:37;;;;;;;3.07;2.13;;;19.60;99.90;;;;;;4935583;29;20228;-62
2023/05/05 13:14:06;;;;;;;3.47;2.23;;;19.40;99.90;;;;;;4937468;29;20236;-62
2023/05/05 13:16:34;;;;;;;4.23;2.13;;;19.40;99.90;;;;;;4934154;29;20228;-63
2023/05/05 13:19:02;;;;;;;2.60;1.70;;;19.40;99.90;;;;;;4936466;29;20221;-62
2023/05/05 13:21:31;;;;;;;5.03;2.10;;;19.30;99.90;;;;;;4932797;29;20204;-62
2023/05/05 13:24:01;;;;;;;2.80;2.00;;;19.10;99.90;;;;;;4938714;29;20193;-62
2023/05/05 13:26:50;;;;;;;5.00;2.13;;;19.10;99.90;;;;;;4936090;29;20295;-62
2023/05/05 13:29:18;;;;;;;4.93;1.90;;;19.00;99.90;;;;;;4936740;29;20221;-62
2023/05/05 13:31:46;;;;;;;3.80;2.17;;;19.00;99.90;;;;;;4937343;29;20279;-62